Time;durP1;ratioP1;P1;durP2;ratioP2;P2;SDS_P1;SDS_P2;PMS_P1;PMS_P2;Temp;Humidity;BMP_temperature;BMP_pressure;BME280_temperature;BME280_humidity;BME280_pressure;Samples;Min_cycle;Max_cycle;Signal;HPM_P1;HPM_P2
2022/08/14 00:00:38;;;;;;;9.17;4.90;;;24.40;92.80;;;24.58;43.87;100804.31;4973716;28;98850;-49
2022/08/14 00:03:04;;;;;;;4.50;4.03;;;24.30;92.70;;;24.57;44.63;100810.69;4980125;28;100025;-45
2022/08/14 00:05:30;;;;;;;6.10;5.40;;;24.30;93.00;;;24.56;44.60;100800.91;4978671;28;97503;-51
2022/08/14 00:07:56;;;;;;;5.07;4.27;;;24.30;93.00;;;24.56;44.97;100800.91;4979776;28;97582;-50
2022/08/14 00:10:23;;;;;;;2.83;2.63;;;24.30;93.30;;;24.51;44.99;100791.56;4978375;28;99110;-48
2022/08/14 00:12:54;;;;;;;2.57;2.37;;;24.30;93.40;;;24.49;45.12;100789.00;4978339;28;98268;-46
2022/08/14 00:15:29;;;;;;;2.40;2.17;;;24.30;93.50;;;24.46;45.28;100780.34;4974630;28;98198;-46
2022/08/14 00:17:55;;;;;;;2.20;2.10;;;24.30;93.50;;;24.45;45.18;100779.50;4979409;28;97324;-45
2022/08/14 00:20:30;;;;;;;4.17;3.80;;;24.30;93.60;;;24.49;45.23;100780.91;4978484;28;97389;-46
2022/08/14 00:22:58;;;;;;;2.88;2.60;;;24.30;93.60;;;24.51;45.30;100789.72;4976855;28;97571;-47
2022/08/14 00:25:25;;;;;;;2.60;2.10;;;24.40;93.60;;;24.52;45.21;100777.94;4962510;28;97349;-48
2022/08/14 00:27:52;;;;;;;4.83;4.33;;;24.30;93.50;;;24.52;45.27;100777.94;4981561;28;98575;-48
2022/08/14 00:30:17;;;;;;;2.30;2.10;;;24.40;93.50;;;24.51;45.34;100776.22;4979967;28;99224;-49
2022/08/14 00:32:44;;;;;;;2.40;2.20;;;24.30;93.50;;;24.51;45.22;100776.22;4982032;28;96949;-48
2022/08/14 00:35:11;;;;;;;2.50;2.30;;;24.40;93.60;;;24.53;45.32;100773.38;4980733;28;99132;-47
2022/08/14 00:37:43;;;;;;;2.40;2.20;;;24.30;93.60;;;24.52;45.32;100772.53;4974934;28;98019;-55
2022/08/14 00:40:14;;;;;;;2.50;2.30;;;24.40;93.60;;;24.51;45.29;100773.53;4977772;28;99866;-51
2022/08/14 00:42:40;;;;;;;2.67;2.47;;;24.40;93.60;;;24.51;45.31;100765.44;4975209;28;98477;-49
2022/08/14 00:45:10;;;;;;;2.10;2.00;;;24.40;93.70;;;24.49;45.49;100764.75;4976626;28;98438;-46
2022/08/14 00:47:36;;;;;;;2.60;2.40;;;24.40;93.70;;;24.46;45.47;100761.47;4976908;28;98011;-51
2022/08/14 00:50:06;;;;;;;2.78;2.58;;;24.30;93.70;;;24.42;45.62;100755.50;4981937;28;98604;-45
2022/08/14 00:52:33;;;;;;;2.67;2.47;;;24.30;93.80;;;24.38;45.85;100748.69;4975124;28;99850;-48
2022/08/14 00:55:01;;;;;;;4.57;2.93;;;24.30;93.80;;;24.40;45.69;100752.09;4975077;28;100229;-45
2022/08/14 00:57:31;;;;;;;2.83;2.63;;;24.30;93.80;;;24.41;45.81;100747.56;4957455;28;97236;-47
2022/08/14 00:59:57;;;;;;;3.17;2.97;;;24.30;93.80;;;24.42;45.80;100741.16;4975145;28;101336;-46
2022/08/14 01:02:24;;;;;;;3.47;2.92;;;24.30;93.90;;;24.43;45.82;100734.78;4956865;28;97583;-50
2022/08/14 01:04:57;;;;;;;3.27;3.07;;;24.30;93.90;;;24.43;45.85;100735.63;4976636;28;99499;-48
2022/08/14 01:07:25;;;;;;;3.80;3.50;;;24.30;93.90;;;24.44;45.76;100725.69;4956493;28;99462;-51
2022/08/14 01:10:06;;;;;;;3.38;3.17;;;24.30;93.90;;;24.48;45.69;100728.00;4980737;28;100175;-44
2022/08/14 01:12:32;;;;;;;3.03;2.83;;;24.30;93.90;;;24.49;45.62;100718.91;4975576;28;98309;-49
2022/08/14 01:15:00;;;;;;;3.60;3.30;;;24.30;93.90;;;24.52;45.62;100713.22;4979674;28;97143;-44
2022/08/14 01:22:59;;;;;;;6.23;5.00;;;24.40;94.50;;;24.58;45.74;100718.03;4958162;28;101618;-45
2022/08/14 01:25:25;;;;;;;3.72;3.42;;;24.40;94.10;;;24.57;45.59;100710.94;4975123;28;99499;-47
2022/08/14 01:27:54;;;;;;;3.35;3.15;;;24.40;93.90;;;24.57;45.69;100710.09;4977846;28;97530;-48
2022/08/14 01:30:22;;;;;;;3.57;3.27;;;24.40;93.90;;;24.60;45.58;100707.13;4978422;28;97048;-50
2022/08/14 01:32:49;;;;;;;3.85;3.55;;;24.40;93.90;;;24.60;45.60;100705.28;4961342;28;99088;-44
2022/08/14 01:35:16;;;;;;;3.65;3.35;;;24.40;93.90;;;24.59;45.56;100698.19;4967265;28;98733;-50
2022/08/14 01:37:48;;;;;;;3.97;3.67;;;24.40;93.90;;;24.58;45.55;100696.47;4982213;28;99412;-49
2022/08/14 01:40:14;;;;;;;3.42;3.22;;;24.40;93.90;;;24.57;45.59;100683.97;4986120;28;97678;-52
2022/08/14 01:42:43;;;;;;;3.77;3.47;;;24.40;93.90;;;24.56;45.55;100690.38;4977659;28;100548;-52
2022/08/14 01:45:13;;;;;;;3.65;3.45;;;24.40;93.90;;;24.57;45.72;100683.97;4982411;28;97612;-45
2022/08/14 01:47:39;;;;;;;3.65;3.45;;;24.40;93.90;;;24.54;45.63;100673.47;4989246;28;97271;-46
2022/08/14 01:50:09;;;;;;;3.83;3.53;;;24.40;94.00;;;24.54;45.69;100673.47;4998024;28;97311;-47
2022/08/14 01:52:37;;;;;;;3.63;3.33;;;24.40;94.00;;;24.53;45.82;100669.09;4998972;28;96782;-48
2022/08/14 01:55:07;;;;;;;3.90;3.60;;;24.40;94.00;;;24.50;45.89;100677.47;5002006;28;97092;-46
2022/08/14 01:57:36;;;;;;;3.92;3.63;;;24.40;94.00;;;24.48;45.83;100668.69;4998869;28;100529;-50
2022/08/14 02:00:11;;;;;;;4.10;3.80;;;24.40;94.10;;;24.43;46.03;100667.38;5000623;28;97410;-47
2022/08/14 02:02:37;;;;;;;4.30;3.90;;;24.30;94.10;;;24.42;45.96;100658.44;4998507;28;97754;-46
2022/08/14 02:05:04;;;;;;;3.80;3.60;;;24.30;94.10;;;24.38;46.09;100654.34;5000339;28;98937;-49
2022/08/14 02:07:31;;;;;;;5.07;4.57;;;24.30;94.20;;;24.42;46.07;100658.44;4992281;28;97299;-48
2022/08/14 02:09:57;;;;;;;6.82;6.22;;;24.30;94.20;;;24.44;46.00;100653.75;4996435;27;97085;-46
2022/08/14 02:12:23;;;;;;;4.30;4.00;;;24.30;94.40;;;24.44;46.02;100648.38;4996878;28;97927;-48
2022/08/14 02:14:49;;;;;;;4.38;4.07;;;24.30;94.20;;;24.44;46.03;100645.66;5000442;28;99073;-47
2022/08/14 02:17:15;;;;;;;4.72;4.43;;;24.30;94.20;;;24.44;46.09;100651.06;5008934;28;96897;-47
2022/08/14 02:19:40;;;;;;;4.55;4.15;;;24.30;94.20;;;24.46;45.92;100654.50;4999166;28;97381;-47
2022/08/14 02:22:07;;;;;;;4.68;4.28;;;24.30;94.20;;;24.47;46.13;100655.34;5001654;28;97403;-46
2022/08/14 02:24:33;;;;;;;4.13;3.83;;;24.30;94.20;;;24.49;46.03;100654.19;4997664;28;98466;-47
2022/08/14 02:27:00;;;;;;;5.05;4.65;;;24.40;94.20;;;24.52;45.96;100653.06;5003710;28;97176;-46
2022/08/14 02:29:29;;;;;;;4.47;4.18;;;24.40;94.20;;;24.54;45.82;100649.22;4996191;28;97312;-49
2022/08/14 02:31:58;;;;;;;4.93;4.53;;;24.40;94.20;;;24.56;45.85;100649.91;4998959;28;98649;-45
2022/08/14 02:34:33;;;;;;;4.70;4.30;;;24.40;94.20;;;24.54;45.90;100656.44;5002830;28;99404;-47
2022/08/14 02:37:08;;;;;;;4.78;4.45;;;24.40;94.20;;;24.54;45.89;100662.69;5005212;28;96805;-45
2022/08/14 02:39:44;;;;;;;5.97;5.47;;;24.40;94.20;;;24.55;46.02;100664.41;5000300;28;97102;-49
2022/08/14 02:42:20;;;;;;;7.90;6.97;;;24.40;94.40;;;24.59;45.97;100670.34;5001799;28;97263;-46
2022/08/14 02:44:46;;;;;;;6.55;6.05;;;24.40;94.50;;;24.59;45.87;100660.44;5002991;28;101332;-45
2022/08/14 02:47:12;;;;;;;8.65;7.80;;;24.40;94.30;;;24.63;47.70;100656.44;5000423;28;97148;-47
2022/08/14 02:49:38;;;;;;;7.03;6.32;;;24.40;95.60;;;24.64;47.12;100657.28;5000630;28;97052;-46
2022/08/14 02:52:06;;;;;;;8.32;7.50;;;24.50;95.40;;;24.65;46.29;100660.84;5004966;28;97464;-49
2022/08/14 02:54:33;;;;;;;6.07;5.47;;;24.40;95.00;;;24.63;46.07;100659.13;4999634;28;96773;-44
2022/08/14 02:57:00;;;;;;;5.97;5.50;;;24.40;94.70;;;24.64;46.18;100662.69;5008725;28;97013;-46
2022/08/14 02:59:30;;;;;;;6.68;4.95;;;24.40;94.40;;;24.65;45.78;100652.75;5001409;28;97144;-45
2022/08/14 03:01:56;;;;;;;5.30;4.90;;;24.40;94.30;;;24.63;45.79;100659.13;4978689;28;97613;-47
2022/08/14 03:04:25;;;;;;;7.40;6.80;;;24.50;94.30;;;24.67;46.07;100661.53;5008282;28;97305;-45
2022/08/14 03:06:51;;;;;;;8.60;7.80;;;24.50;94.60;;;24.67;46.96;100661.53;5009946;28;97996;-45
2022/08/14 03:09:16;;;;;;;5.80;5.30;;;24.50;95.30;;;24.65;46.25;100650.06;5001507;28;97141;-56
2022/08/14 03:11:43;;;;;;;4.97;4.57;;;24.40;94.60;;;24.65;45.86;100652.75;5004650;28;97270;-45
2022/08/14 03:14:10;;;;;;;8.68;7.78;;;24.40;94.40;;;24.66;47.69;100649.06;5006347;28;97988;-45
2022/08/14 03:16:38;;;;;;;8.90;7.73;;;24.40;95.60;;;24.67;47.15;100659.69;5005649;28;97512;-48
2022/08/14 03:19:06;;;;;;;6.03;5.53;;;24.40;95.80;;;24.61;47.13;100657.59;5012108;28;97672;-45
2022/08/14 03:21:35;;;;;;;5.07;4.68;;;24.40;95.40;;;24.60;46.19;100656.75;4993089;28;97246;-50
2022/08/14 03:26:31;;;;;;;7.93;6.75;;;24.40;94.70;;;24.58;47.27;100653.31;4975600;28;98003;-49
2022/08/14 03:28:58;;;;;;;5.10;4.70;;;24.40;95.80;;;24.56;46.20;100655.31;5006501;28;96912;-45
2022/08/14 03:31:23;;;;;;;5.50;5.10;;;24.40;94.80;;;24.57;46.69;100650.75;4999928;28;97324;-49
2022/08/14 03:33:50;;;;;;;5.63;5.13;;;24.40;95.50;;;24.55;46.60;100653.59;5011688;28;97098;-48
2022/08/14 03:36:19;;;;;;;5.10;4.70;;;24.40;94.90;;;24.56;45.95;100644.53;5006155;28;97186;-56
2022/08/14 03:38:49;;;;;;;4.72;4.35;;;24.40;94.60;;;24.56;45.95;100644.53;5005499;28;97610;-45
2022/08/14 03:41:21;;;;;;;5.53;5.10;;;24.40;94.50;;;24.57;46.72;100638.13;5009053;28;96983;-45
2022/08/14 03:43:56;;;;;;;4.68;4.38;;;24.40;95.00;;;24.56;46.15;100641.81;5008741;28;99739;-51
2022/08/14 03:46:26;;;;;;;5.00;4.60;;;24.40;94.60;;;24.54;45.98;100635.72;4996571;28;96796;-46
2022/08/14 03:48:55;;;;;;;4.57;4.28;;;24.40;94.50;;;24.54;45.99;100635.72;5005741;28;97347;-46
2022/08/14 03:51:27;;;;;;;5.03;4.63;;;24.40;94.50;;;24.52;46.38;100631.50;4996765;28;103567;-46
2022/08/14 03:54:00;;;;;;;8.83;8.13;;;24.40;94.90;;;24.57;47.39;100645.38;5004187;28;97794;-45
2022/08/14 03:56:28;;;;;;;7.05;6.55;;;24.30;96.00;;;24.54;46.85;100641.13;5002986;28;97165;-47
2022/08/14 03:58:57;;;;;;;4.20;3.90;;;24.30;96.00;;;24.51;46.29;100651.34;5001580;28;97681;-49
2022/08/14 04:01:25;;;;;;;4.87;4.47;;;24.30;95.00;;;24.50;46.24;100639.72;4996662;28;99160;-46
2022/08/14 04:03:53;;;;;;;5.18;4.78;;;24.30;94.80;;;24.50;46.42;100637.03;4998042;27;97536;-45
2022/08/14 04:06:20;;;;;;;5.65;5.18;;;24.30;94.90;;;24.52;47.44;100631.50;4996972;28;97283;-46
2022/08/14 04:08:48;;;;;;;5.33;4.93;;;24.30;95.70;;;24.51;46.34;100633.34;4996975;28;97014;-46
2022/08/14 04:11:16;;;;;;;4.90;4.50;;;24.30;95.00;;;24.51;46.30;100636.03;5004272;28;97371;-47
2022/08/14 04:13:42;;;;;;;4.20;3.90;;;24.30;94.90;;;24.52;46.44;100635.03;4997002;28;102210;-52
2022/08/14 04:16:15;;;;;;;5.20;4.80;;;24.30;94.80;;;24.52;46.13;100643.13;5008281;28;97074;-49
2022/08/14 04:18:45;;;;;;;4.88;4.57;;;24.30;94.80;;;24.53;46.21;100636.72;5008539;28;97238;-49
2022/08/14 04:21:13;;;;;;;4.80;4.40;;;24.30;94.70;;;24.55;46.25;100636.59;5007449;28;97769;-47
2022/08/14 04:23:41;;;;;;;6.20;5.70;;;24.30;94.60;;;24.56;46.41;100639.13;4998534;28;96990;-47
2022/08/14 04:26:11;;;;;;;9.32;8.43;;;24.30;95.00;;;24.57;47.41;100635.44;5013852;28;96767;-46
2022/08/14 04:28:39;;;;;;;6.25;5.75;;;24.40;95.60;;;24.56;46.23;100628.34;5000027;28;102947;-54
2022/08/14 04:31:07;;;;;;;5.00;4.60;;;24.30;95.30;;;24.54;46.37;100635.72;5009750;28;97599;-54
2022/08/14 04:33:35;;;;;;;5.28;4.78;;;24.30;95.20;;;24.53;46.78;100628.63;5008373;28;97179;-51
2022/08/14 04:36:01;;;;;;;4.40;4.10;;;24.30;95.40;;;24.50;46.65;100623.53;5014483;28;96937;-48
2022/08/14 04:43:57;;;;;;;5.40;4.93;;;24.20;96.40;;;24.47;46.78;100620.31;5008671;28;101110;-52
2022/08/14 04:46:24;;;;;;;4.97;4.57;;;24.20;96.30;;;24.46;46.90;100621.28;5004123;28;97177;-48
2022/08/14 04:48:51;;;;;;;5.55;5.03;;;24.20;96.00;;;24.44;47.45;100624.09;5017019;28;97456;-48
2022/08/14 04:51:20;;;;;;;5.80;5.30;;;24.20;95.90;;;24.46;47.53;100629.38;5002479;28;98200;-56
2022/08/14 04:53:48;;;;;;;5.40;5.00;;;24.20;96.10;;;24.46;47.24;100622.16;5000219;28;98556;-52
2022/08/14 04:56:21;;;;;;;5.60;5.20;;;24.20;95.90;;;24.45;47.13;100630.34;4999566;28;98694;-52
2022/08/14 04:58:49;;;;;;;5.00;4.60;;;24.20;96.20;;;24.43;46.76;100610.78;5003914;28;97381;-50
2022/08/14 05:01:16;;;;;;;5.10;4.70;;;24.20;95.50;;;24.43;46.88;100610.78;4999777;27;98895;-52
2022/08/14 05:03:42;;;;;;;5.63;5.13;;;24.20;95.40;;;24.43;47.02;100611.63;5003960;28;101222;-53
2022/08/14 05:06:11;;;;;;;4.83;4.40;;;24.20;95.40;;;24.46;46.47;100616.75;5001170;28;98133;-50
2022/08/14 05:08:38;;;;;;;5.20;4.80;;;24.20;95.10;;;24.46;46.50;100613.22;5001950;28;96892;-55
2022/08/14 05:11:06;;;;;;;4.72;4.38;;;24.30;95.00;;;24.48;46.43;100613.91;4979405;28;96961;-51
2022/08/14 05:13:34;;;;;;;4.50;4.20;;;24.30;95.00;;;24.48;46.41;100614.75;5002983;27;97410;-53
2022/08/14 05:16:01;;;;;;;4.05;3.75;;;24.30;95.00;;;24.50;46.61;100618.16;5003693;28;99361;-51
2022/08/14 05:18:35;;;;;;;5.88;5.38;;;24.30;95.10;;;24.52;47.13;100609.91;5008260;28;97324;-52
2022/08/14 05:21:07;;;;;;;4.77;4.47;;;24.30;96.20;;;24.50;46.42;100607.38;5009230;28;97401;-56
2022/08/14 05:23:37;;;;;;;5.18;4.78;;;24.30;95.20;;;24.50;46.41;100606.53;4998563;28;97475;-56
2022/08/14 05:26:12;;;;;;;4.70;4.30;;;24.30;95.10;;;24.49;46.28;100611.06;4985946;28;97409;-55
2022/08/14 05:28:44;;;;;;;5.03;4.53;;;24.30;95.00;;;24.48;46.08;100603.97;4980769;28;97217;-52
2022/08/14 05:31:13;;;;;;;4.85;4.50;;;24.30;94.90;;;24.48;46.26;100603.13;4999689;28;99666;-50
2022/08/14 05:33:39;;;;;;;4.63;4.33;;;24.30;94.90;;;24.47;46.40;100598.72;5012553;28;97591;-50
2022/08/14 05:36:10;;;;;;;4.87;4.47;;;24.30;94.90;;;24.40;46.58;100598.44;5004436;28;96889;-50
2022/08/14 05:38:41;;;;;;;4.80;4.47;;;24.30;94.90;;;24.42;46.54;100593.75;5001713;28;97193;-49
2022/08/14 05:41:16;;;;;;;4.68;4.38;;;24.30;95.00;;;24.45;46.43;100588.09;5010011;28;97213;-49
2022/08/14 05:43:44;;;;;;;4.60;4.30;;;24.30;95.00;;;24.46;46.51;100587.09;5009167;28;102092;-55
2022/08/14 05:46:17;;;;;;;5.28;4.88;;;24.30;95.00;;;24.48;46.42;100587.78;5002669;28;97270;-52
2022/08/14 05:48:50;;;;;;;5.13;4.72;;;24.30;94.90;;;24.48;46.50;100586.94;5002860;28;96870;-51
2022/08/14 05:51:16;;;;;;;4.60;4.30;;;24.30;94.90;;;24.41;46.73;100575.88;5004459;28;97540;-47
2022/08/14 05:53:42;;;;;;;4.73;4.43;;;24.30;94.90;;;24.43;46.62;100584.66;4999190;28;102579;-48
2022/08/14 05:56:08;;;;;;;5.45;5.05;;;24.30;95.00;;;24.41;46.66;100578.56;5009955;28;97154;-48
2022/08/14 05:58:34;;;;;;;5.10;4.70;;;24.30;95.00;;;24.43;46.72;100583.81;5013101;28;97240;-48
2022/08/14 06:01:00;;;;;;;5.25;4.85;;;24.30;95.00;;;24.44;46.75;100586.38;4998114;28;98038;-53
2022/08/14 06:03:25;;;;;;;5.72;5.22;;;24.30;95.00;;;24.44;46.69;100575.59;5010458;28;98512;-53
2022/08/14 06:05:54;;;;;;;5.22;4.82;;;24.30;95.00;;;24.43;46.76;100573.03;5007320;28;100418;-53
2022/08/14 06:08:29;;;;;;;5.82;5.38;;;24.30;95.10;;;24.44;46.91;100569.34;4992489;28;97630;-46
2022/08/14 06:11:02;;;;;;;5.97;5.47;;;24.30;95.10;;;24.43;46.80;100573.03;4998293;28;97438;-46
2022/08/14 06:13:33;;;;;;;5.22;4.82;;;24.30;95.10;;;24.46;46.75;100572.78;5010428;28;99282;-56
2022/08/14 06:15:58;;;;;;;5.57;5.10;;;24.30;95.10;;;24.45;46.72;100571.91;5010299;28;97332;-49
2022/08/14 06:18:24;;;;;;;6.28;5.78;;;24.30;95.10;;;24.47;46.66;100575.31;5006883;28;99260;-48
2022/08/14 06:20:50;;;;;;;9.60;8.65;;;24.30;95.00;;;24.54;47.88;100578.25;5011847;28;99927;-48
2022/08/14 06:23:17;;;;;;;5.78;5.30;;;24.40;96.00;;;24.52;46.67;100578.41;5000753;28;98199;-54
2022/08/14 06:25:44;;;;;;;5.88;5.45;;;24.40;95.10;;;24.53;46.58;100576.56;5004255;28;97155;-50
2022/08/14 06:28:21;;;;;;;6.97;6.47;;;24.40;95.00;;;24.55;46.68;100572.72;5000177;28;97344;-52
2022/08/14 06:30:48;;;;;;;6.00;5.60;;;24.40;95.10;;;24.50;46.61;100572.31;5003356;28;101744;-56
2022/08/14 06:33:16;;;;;;;6.18;5.68;;;24.40;95.00;;;24.54;46.50;100571.03;5008216;28;97425;-51
2022/08/14 06:35:43;;;;;;;6.10;5.60;;;24.40;95.00;;;24.54;46.68;100570.16;4998885;28;100085;-47
2022/08/14 06:38:19;;;;;;;6.80;6.20;;;24.40;95.00;;;24.58;46.56;100572.41;4999862;27;98231;-55
2022/08/14 06:40:46;;;;;;;6.50;6.00;;;24.40;95.10;;;24.56;46.67;100569.03;5008457;28;101605;-52
2022/08/14 06:43:13;;;;;;;6.55;6.03;;;24.40;95.00;;;24.58;46.32;100569.72;5001469;28;97179;-52
2022/08/14 06:45:42;;;;;;;6.15;5.65;;;24.40;94.90;;;24.60;46.41;100573.16;4988697;28;97081;-49
2022/08/14 06:48:22;;;;;;;5.97;5.47;;;24.40;94.90;;;24.63;46.36;100567.47;5001821;28;97450;-52
2022/08/14 06:50:50;;;;;;;7.82;7.15;;;24.50;94.90;;;24.62;46.51;100563.06;4996560;28;101897;-57
2022/08/14 06:53:18;;;;;;;8.57;7.82;;;24.50;95.00;;;24.62;46.48;100554.97;4997534;28;97127;-53
2022/08/14 06:55:46;;;;;;;6.53;6.03;;;24.50;95.10;;;24.64;46.41;100554.81;5003035;28;98227;-52
2022/08/14 06:58:14;;;;;;;6.15;5.55;;;24.50;94.90;;;24.63;46.33;100556.66;4998279;28;104926;-50
2022/08/14 07:05:44;;;;;;;6.88;6.28;;;24.50;94.90;;;24.62;46.41;100552.28;5000045;28;97508;-50
2022/08/14 07:06:13;;;;;;;7.57;6.63;;;24.50;94.90;;;24.67;46.46;100542.88;4998845;28;97355;-53
2022/08/14 07:08:39;;;;;;;6.95;6.35;;;24.50;95.00;;;24.65;46.54;100542.19;4992727;28;97487;-48
2022/08/14 07:11:05;;;;;;;8.48;7.68;;;24.50;94.90;;;24.68;46.52;100544.59;5000361;28;99663;-53
2022/08/14 07:13:31;;;;;;;6.28;5.78;;;24.50;94.90;;;24.65;46.47;100542.19;4994675;28;98476;-52
2022/08/14 07:15:58;;;;;;;6.68;6.15;;;24.50;94.90;;;24.68;46.99;100533.78;5000626;28;97075;-54
2022/08/14 07:18:29;;;;;;;6.50;6.00;;;24.50;95.20;;;24.65;46.55;100526.00;4985287;28;98214;-48
2022/08/14 07:20:58;;;;;;;8.25;7.55;;;24.50;94.90;;;24.69;46.50;100522.00;5001873;27;97936;-53
2022/08/14 07:23:25;;;;;;;6.32;5.88;;;24.50;94.90;;;24.71;46.46;100533.50;5000923;28;97221;-50
2022/08/14 07:25:54;;;;;;;9.02;8.23;;;24.60;95.00;;;24.75;47.33;100534.91;4994498;28;96722;-52
2022/08/14 07:28:36;;;;;;;6.65;6.05;;;24.60;96.40;;;24.74;46.43;100525.97;5007060;28;97128;-52
2022/08/14 07:31:08;;;;;;;6.63;6.13;;;24.60;94.90;;;24.73;46.58;100526.09;5010414;28;97570;-51
2022/08/14 07:33:44;;;;;;;6.70;6.10;;;24.60;94.90;;;24.70;46.54;100527.25;5005908;28;98630;-56
2022/08/14 07:36:13;;;;;;;6.05;5.55;;;24.60;95.00;;;24.60;46.76;100524.63;5008889;28;98399;-49
2022/08/14 07:38:42;;;;;;;6.95;6.35;;;24.50;95.00;;;24.61;46.64;100522.75;4998405;28;96982;-51
2022/08/14 07:41:11;;;;;;;7.15;6.55;;;24.50;95.10;;;24.61;46.66;100518.22;4997872;28;98693;-52
2022/08/14 07:43:38;;;;;;;6.82;6.18;;;24.50;95.00;;;24.62;46.73;100513.69;4999990;28;97237;-49
2022/08/14 07:46:05;;;;;;;6.47;5.97;;;24.50;95.00;;;24.61;46.64;100502.03;5004615;28;97168;-49
2022/08/14 07:48:31;;;;;;;10.80;7.82;;;24.50;95.10;;;24.70;46.53;100504.81;5006039;28;96974;-54
2022/08/14 07:50:57;;;;;;;9.93;7.57;;;24.60;95.20;;;24.76;49.67;100504.25;5005797;27;97223;-57
2022/08/14 07:53:23;;;;;;;6.03;5.53;;;24.60;97.00;;;24.71;46.37;100511.91;5006044;28;97868;-53
2022/08/14 07:55:49;;;;;;;6.38;5.78;;;24.60;94.90;;;24.70;46.61;100505.66;5011262;28;97525;-50
2022/08/14 07:58:16;;;;;;;7.43;6.75;;;24.60;95.00;;;24.75;46.69;100502.56;5012399;28;97221;-50
2022/08/14 08:00:43;;;;;;;8.75;8.00;;;24.60;95.00;;;24.91;48.92;100505.44;5002680;28;101984;-53
2022/08/14 08:03:09;;;;;;;7.85;7.10;;;24.80;96.80;;;24.99;46.30;100513.63;4995671;28;97316;-53
2022/08/14 08:05:38;;;;;;;8.88;8.02;;;24.90;95.30;;;25.00;48.75;100512.66;5002872;28;97075;-47
2022/08/14 08:08:06;;;;;;;6.80;6.30;;;24.90;96.70;;;24.87;46.31;100501.31;5006287;28;97653;-47
2022/08/14 08:10:33;;;;;;;8.30;7.50;;;24.80;94.70;;;24.86;46.75;100505.03;5002915;28;97476;-51
2022/08/14 08:13:26;;;;;;;7.60;7.00;;;24.80;95.60;;;24.84;46.53;100507.03;5006027;28;97294;-51
2022/08/14 08:15:56;;;;;;;7.13;6.45;;;24.80;94.90;;;24.81;46.54;100507.34;4972643;28;97712;-54
2022/08/14 08:18:23;;;;;;;6.50;6.00;;;24.70;95.00;;;24.81;46.52;100512.72;5001077;27;97522;-52
2022/08/14 08:20:53;;;;;;;7.97;7.28;;;24.70;94.90;;;24.83;46.48;100510.72;5009175;27;97447;-50
2022/08/14 08:23:22;;;;;;;8.07;7.28;;;24.70;95.10;;;25.00;48.05;100500.97;5004908;28;97230;-53
2022/08/14 08:25:50;;;;;;;9.20;8.40;;;24.90;96.00;;;24.95;46.50;100497.88;5012556;28;97455;-48
2022/08/14 08:28:26;;;;;;;6.70;6.20;;;24.90;95.30;;;24.78;46.56;100502.25;5012849;28;97136;-45
2022/08/14 08:30:59;;;;;;;6.38;5.88;;;24.70;95.00;;;24.83;46.62;100511.56;5005223;28;100542;-48
2022/08/14 08:33:28;;;;;;;6.38;5.97;;;24.70;95.20;;;24.78;46.64;100502.25;5011144;28;97480;-48
2022/08/14 08:36:02;;;;;;;5.72;5.32;;;24.70;95.00;;;24.73;46.99;100507.22;5014938;28;97686;-47
2022/08/14 08:38:28;;;;;;;7.05;6.45;;;24.60;95.10;;;24.70;46.83;100494.88;5004453;28;96987;-50
2022/08/14 08:40:57;;;;;;;6.47;5.88;;;24.60;95.20;;;24.61;47.01;100496.66;5007852;28;97336;-52
2022/08/14 08:43:24;;;;;;;6.65;6.15;;;24.60;95.20;;;24.75;46.84;100486.38;4990495;27;97550;-51
2022/08/14 08:46:09;;;;;;;6.63;6.13;;;24.60;95.50;;;24.76;46.70;100488.06;5004078;27;97403;-52
2022/08/14 08:48:52;;;;;;;6.35;5.75;;;24.60;95.20;;;24.75;48.06;100481.81;5003888;28;97175;-52
2022/08/14 08:51:28;;;;;;;6.38;5.78;;;24.60;95.40;;;24.72;46.71;100486.66;5000668;28;97205;-56
2022/08/14 08:54:14;;;;;;;7.68;6.50;;;24.60;95.20;;;24.67;47.12;100480.84;5013646;28;97384;-47
2022/08/14 08:56:49;;;;;;;6.93;6.28;;;24.60;95.30;;;24.56;47.22;100480.06;5006282;27;97230;-52
2022/08/14 08:59:16;;;;;;;6.55;6.05;;;24.50;95.30;;;24.54;47.33;100479.34;5008217;28;97583;-50
2022/08/14 09:01:57;;;;;;;6.88;6.30;;;24.50;95.30;;;24.46;47.54;100473.88;4995639;28;100324;-44
2022/08/14 09:04:30;;;;;;;6.57;6.07;;;24.40;95.50;;;24.35;48.21;100474.06;4996666;28;97310;-50
2022/08/14 09:06:56;;;;;;;7.18;6.53;;;24.30;95.80;;;24.33;48.16;100468.81;4989323;28;97511;-52
2022/08/14 09:09:28;;;;;;;6.72;6.22;;;24.30;95.90;;;24.48;47.68;100463.78;5003103;27;97414;-49
2022/08/14 09:12:00;;;;;;;6.78;6.05;;;24.40;95.80;;;24.42;47.82;100479.69;5001591;28;97499;-52
2022/08/14 09:14:28;;;;;;;7.05;6.45;;;24.40;95.80;;;24.55;47.34;100464.88;4986663;28;99918;-50
2022/08/14 09:16:57;;;;;;;7.45;6.75;;;24.40;95.70;;;24.60;47.43;100473.38;5000905;28;97446;-51
2022/08/14 09:19:24;;;;;;;6.93;6.40;;;24.50;95.60;;;24.59;47.51;100469.00;4996369;28;97422;-47
2022/08/14 09:21:52;;;;;;;7.22;6.63;;;24.50;95.60;;;24.58;47.36;100459.19;4981405;28;97618;-55
2022/08/14 09:24:18;;;;;;;6.72;6.22;;;24.50;95.50;;;24.50;47.67;100461.78;4980168;28;98330;-56
2022/08/14 09:26:44;;;;;;;7.50;6.90;;;24.50;95.60;;;24.53;47.63;100458.78;4983998;28;100282;-55
2022/08/14 09:29:11;;;;;;;8.65;6.70;;;24.40;95.60;;;24.77;47.25;100452.00;4959054;28;102806;-54
2022/08/14 09:31:47;;;;;;;6.90;6.40;;;24.70;95.80;;;24.69;47.20;100454.59;4974437;28;101706;-51
2022/08/14 09:34:31;;;;;;;6.32;5.82;;;24.60;95.40;;;24.68;47.27;100444.81;4964161;28;100145;-51
2022/08/14 09:37:36;;;;;;;6.90;6.38;;;24.60;95.50;;;24.63;47.24;100446.13;4969247;28;96992;-56
2022/08/14 09:40:15;;;;;;;7.07;6.45;;;24.60;95.50;;;24.67;47.36;100443.09;4976519;28;97992;-50
2022/08/14 09:43:32;;;;;;;6.70;6.20;;;24.60;95.50;;;24.57;47.27;100432.38;4945133;28;98346;-51
2022/08/14 09:45:59;;;;;;;6.40;5.90;;;24.50;95.50;;;24.57;47.44;100430.50;4961161;28;100114;-52
2022/08/14 09:48:26;;;;;;;6.63;6.13;;;24.50;95.60;;;24.60;47.45;100422.16;4979619;28;101856;-51
2022/08/14 09:50:55;;;;;;;6.82;6.22;;;24.50;95.60;;;24.61;47.25;100418.44;4982402;28;99707;-54
2022/08/14 09:53:39;;;;;;;5.82;5.43;;;24.50;95.50;;;24.58;47.53;100416.03;4973657;28;97634;-49
2022/08/14 09:56:05;;;;;;;7.30;6.78;;;24.50;95.50;;;24.49;47.52;100411.56;4980087;28;99428;-50
2022/08/14 09:58:46;;;;;;;6.45;5.95;;;24.50;95.50;;;24.55;47.38;100416.34;4980799;28;97868;-55
2022/08/14 10:01:16;;;;;;;6.85;6.25;;;24.50;95.60;;;24.61;47.33;100420.31;4982671;28;97653;-57
2022/08/14 10:03:54;;;;;;;6.78;6.22;;;24.50;95.40;;;24.67;47.33;100411.59;4974652;28;100976;-52
2022/08/14 10:06:24;;;;;;;8.27;5.85;;;24.60;95.50;;;24.70;47.28;100418.53;4974155;28;103967;-54
2022/08/14 10:08:58;;;;;;;6.70;6.20;;;24.60;95.50;;;24.72;47.02;100411.13;4982591;28;102322;-45
2022/08/14 10:11:34;;;;;;;6.65;6.07;;;24.60;95.40;;;24.62;47.31;100405.81;4976625;28;99377;-56
2022/08/14 10:14:25;;;;;;;6.60;6.10;;;24.60;95.30;;;24.61;47.26;100399.56;4976574;27;102614;-56
2022/08/14 10:16:55;;;;;;;6.72;6.22;;;24.60;95.40;;;24.55;47.56;100394.78;4976802;28;103118;-50
2022/08/14 10:19:27;;;;;;;6.50;5.95;;;24.50;95.50;;;24.59;47.44;100390.78;4976024;28;97444;-54
2022/08/14 10:22:00;;;;;;;6.68;6.18;;;24.50;95.60;;;24.71;47.09;100391.41;4981988;28;99394;-51
2022/08/14 10:24:32;;;;;;;6.90;6.40;;;24.60;95.40;;;24.71;47.15;100391.41;4974888;28;97864;-48
2022/08/14 10:27:00;;;;;;;6.22;5.72;;;24.60;95.40;;;24.50;47.57;100380.91;4977437;28;97381;-54
2022/08/14 10:29:39;;;;;;;6.70;6.20;;;24.50;95.50;;;24.43;47.90;100385.19;4977191;28;100595;-55
2022/08/14 10:32:10;;;;;;;6.18;5.70;;;24.40;95.60;;;24.43;47.88;100385.19;4978002;28;97286;-56
2022/08/14 10:34:38;;;;;;;5.53;5.13;;;24.40;95.70;;;24.55;47.46;100381.28;4979033;28;100590;-53
2022/08/14 10:37:12;;;;;;;5.68;5.25;;;24.50;95.60;;;24.60;47.45;100368.22;4979924;28;100014;-57
2022/08/14 10:39:39;;;;;;;4.88;4.47;;;24.50;95.40;;;24.63;47.32;100365.22;4978138;28;97801;-55